sensor_id;sensor_type;location;lat;lon;timestamp;P1;durP1;ratioP1;P2;durP2;ratioP2
64110;SDS011;50401;48.188;11.566;2023-03-14T00:00:58;0.80;;;0.70;;
64110;SDS011;50401;48.188;11.566;2023-03-14T00:03:24;4.97;;;0.85;;
64110;SDS011;50401;48.188;11.566;2023-03-14T00:05:49;1.40;;;0.80;;
64110;SDS011;50401;48.188;11.566;2023-03-14T00:08:15;2.10;;;0.80;;
64110;SDS011;50401;48.188;11.566;2023-03-14T00:10:40;1.23;;;0.70;;
64110;SDS011;50401;48.188;11.566;2023-03-14T00:13:06;0.95;;;0.50;;
64110;SDS011;50401;48.188;11.566;2023-03-14T00:15:32;1.73;;;0.93;;
64110;SDS011;50401;48.188;11.566;2023-03-14T00:17:59;3.35;;;1.00;;
64110;SDS011;50401;48.188;11.566;2023-03-14T00:20:24;0.40;;;0.30;;
64110;SDS011;50401;48.188;11.566;2023-03-14T00:22:50;1.35;;;0.55;;
64110;SDS011;50401;48.188;11.566;2023-03-14T00:25:15;0.47;;;0.40;;
64110;SDS011;50401;48.188;11.566;2023-03-14T00:27:41;1.38;;;0.40;;
64110;SDS011;50401;48.188;11.566;2023-03-14T00:30:06;0.80;;;0.43;;
64110;SDS011;50401;48.188;11.566;2023-03-14T00:32:35;0.40;;;0.40;;
64110;SDS011;50401;48.188;11.566;2023-03-14T00:35:00;0.55;;;0.52;;
64110;SDS011;50401;48.188;11.566;2023-03-14T00:37:27;1.15;;;0.45;;
64110;SDS011;50401;48.188;11.566;2023-03-14T00:39:52;7.50;;;0.60;;
64110;SDS011;50401;48.188;11.566;2023-03-14T00:42:17;1.33;;;0.55;;
64110;SDS011;50401;48.188;11.566;2023-03-14T00:44:43;0.43;;;0.43;;
64110;SDS011;50401;48.188;11.566;2023-03-14T00:47:08;0.38;;;0.38;;
64110;SDS011;50401;48.188;11.566;2023-03-14T00:49:33;0.40;;;0.40;;
64110;SDS011;50401;48.188;11.566;2023-03-14T00:51:59;1.50;;;0.60;;
64110;SDS011;50401;48.188;11.566;2023-03-14T00:54:24;0.35;;;0.32;;
64110;SDS011;50401;48.188;11.566;2023-03-14T00:56:50;2.00;;;0.50;;
64110;SDS011;50401;48.188;11.566;2023-03-14T00:59:15;2.35;;;0.75;;
64110;SDS011;50401;48.188;11.566;2023-03-14T01:01:41;3.67;;;0.52;;
64110;SDS011;50401;48.188;11.566;2023-03-14T01:04:07;2.45;;;0.50;;
64110;SDS011;50401;48.188;11.566;2023-03-14T01:06:32;0.45;;;0.45;;
64110;SDS011;50401;48.188;11.566;2023-03-14T01:08:58;1.60;;;0.30;;
64110;SDS011;50401;48.188;11.566;2023-03-14T01:11:26;2.28;;;0.43;;
64110;SDS011;50401;48.188;11.566;2023-03-14T01:13:53;3.33;;;0.52;;
64110;SDS011;50401;48.188;11.566;2023-03-14T01:16:20;0.63;;;0.50;;
64110;SDS011;50401;48.188;11.566;2023-03-14T01:18:46;0.43;;;0.30;;
64110;SDS011;50401;48.188;11.566;2023-03-14T01:21:34;0.50;;;0.50;;
64110;SDS011;50401;48.188;11.566;2023-03-14T01:23:59;0.35;;;0.35;;
64110;SDS011;50401;48.188;11.566;2023-03-14T01:26:26;1.27;;;0.60;;
64110;SDS011;50401;48.188;11.566;2023-03-14T01:28:54;3.30;;;0.40;;
64110;SDS011;50401;48.188;11.566;2023-03-14T01:31:20;1.30;;;0.43;;
64110;SDS011;50401;48.188;11.566;2023-03-14T01:33:45;4.25;;;1.10;;
64110;SDS011;50401;48.188;11.566;2023-03-14T01:36:11;0.40;;;0.40;;
64110;SDS011;50401;48.188;11.566;2023-03-14T01:38:38;2.58;;;0.30;;
64110;SDS011;50401;48.188;11.566;2023-03-14T01:41:04;1.80;;;0.57;;
64110;SDS011;50401;48.188;11.566;2023-03-14T01:43:30;4.40;;;0.50;;
64110;SDS011;50401;48.188;11.566;2023-03-14T01:59:45;0.82;;;0.35;;
64110;SDS011;50401;48.188;11.566;2023-03-14T02:02:19;1.75;;;0.50;;
64110;SDS011;50401;48.188;11.566;2023-03-14T02:04:45;5.18;;;0.65;;
64110;SDS011;50401;48.188;11.566;2023-03-14T02:07:24;0.38;;;0.30;;
64110;SDS011;50401;48.188;11.566;2023-03-14T02:09:56;2.90;;;0.63;;
64110;SDS011;50401;48.188;11.566;2023-03-14T02:12:24;3.70;;;0.88;;
64110;SDS011;50401;48.188;11.566;2023-03-14T02:14:50;6.13;;;0.55;;
64110;SDS011;50401;48.188;11.566;2023-03-14T02:17:16;0.68;;;0.40;;
64110;SDS011;50401;48.188;11.566;2023-03-14T02:22:09;0.40;;;0.40;;
64110;SDS011;50401;48.188;11.566;2023-03-14T02:27:39;0.45;;;0.28;;
64110;SDS011;50401;48.188;11.566;2023-03-14T02:30:06;5.82;;;0.50;;
64110;SDS011;50401;48.188;11.566;2023-03-14T02:32:36;1.23;;;0.38;;
64110;SDS011;50401;48.188;11.566;2023-03-14T02:35:05;1.10;;;0.43;;
64110;SDS011;50401;48.188;11.566;2023-03-14T02:37:46;1.67;;;0.30;;
64110;SDS011;50401;48.188;11.566;2023-03-14T02:40:30;3.58;;;0.75;;
64110;SDS011;50401;48.188;11.566;2023-03-14T02:42:55;1.98;;;0.70;;
64110;SDS011;50401;48.188;11.566;2023-03-14T02:47:48;2.42;;;1.40;;
64110;SDS011;50401;48.188;11.566;2023-03-14T02:50:20;3.08;;;1.90;;
64110;SDS011;50401;48.188;11.566;2023-03-14T02:52:47;2.97;;;0.47;;
64110;SDS011;50401;48.188;11.566;2023-03-14T02:55:13;1.08;;;0.35;;
64110;SDS011;50401;48.188;11.566;2023-03-14T02:57:39;2.08;;;0.40;;
64110;SDS011;50401;48.188;11.566;2023-03-14T03:00:04;1.05;;;0.50;;
64110;SDS011;50401;48.188;11.566;2023-03-14T03:02:31;1.40;;;0.90;;
64110;SDS011;50401;48.188;11.566;2023-03-14T03:04:56;2.80;;;1.00;;
64110;SDS011;50401;48.188;11.566;2023-03-14T03:07:22;2.58;;;0.88;;
64110;SDS011;50401;48.188;11.566;2023-03-14T03:09:47;2.88;;;0.35;;
64110;SDS011;50401;48.188;11.566;2023-03-14T03:12:13;0.47;;;0.30;;
64110;SDS011;50401;48.188;11.566;2023-03-14T03:14:38;2.00;;;0.60;;
64110;SDS011;50401;48.188;11.566;2023-03-14T03:17:04;4.60;;;0.50;;
64110;SDS011;50401;48.188;11.566;2023-03-14T03:19:30;0.75;;;0.57;;
64110;SDS011;50401;48.188;11.566;2023-03-14T03:21:56;0.30;;;0.22;;
64110;SDS011;50401;48.188;11.566;2023-03-14T03:24:21;2.05;;;0.68;;
64110;SDS011;50401;48.188;11.566;2023-03-14T03:26:46;0.98;;;0.38;;
64110;SDS011;50401;48.188;11.566;2023-03-14T03:29:12;0.75;;;0.40;;
64110;SDS011;50401;48.188;11.566;2023-03-14T03:31:38;1.70;;;0.57;;
64110;SDS011;50401;48.188;11.566;2023-03-14T03:34:03;2.30;;;0.60;;
64110;SDS011;50401;48.188;11.566;2023-03-14T03:36:29;2.25;;;0.77;;
64110;SDS011;50401;48.188;11.566;2023-03-14T03:38:54;5.25;;;0.60;;
64110;SDS011;50401;48.188;11.566;2023-03-14T03:41:19;1.67;;;0.35;;
64110;SDS011;50401;48.188;11.566;2023-03-14T03:43:45;1.88;;;0.68;;
64110;SDS011;50401;48.188;11.566;2023-03-14T03:46:10;2.50;;;0.70;;
64110;SDS011;50401;48.188;11.566;2023-03-14T03:48:35;1.40;;;0.40;;
64110;SDS011;50401;48.188;11.566;2023-03-14T03:51:01;4.80;;;0.88;;
64110;SDS011;50401;48.188;11.566;2023-03-14T03:53:26;0.60;;;0.43;;
64110;SDS011;50401;48.188;11.566;2023-03-14T03:55:52;2.08;;;0.38;;
64110;SDS011;50401;48.188;11.566;2023-03-14T03:58:18;4.28;;;0.93;;
64110;SDS011;50401;48.188;11.566;2023-03-14T04:00:44;1.42;;;0.43;;
64110;SDS011;50401;48.188;11.566;2023-03-14T04:03:09;1.13;;;0.40;;
64110;SDS011;50401;48.188;11.566;2023-03-14T04:05:34;1.85;;;0.52;;
64110;SDS011;50401;48.188;11.566;2023-03-14T04:08:00;3.83;;;0.40;;
64110;SDS011;50401;48.188;11.566;2023-03-14T04:10:26;1.45;;;0.30;;
64110;SDS011;50401;48.188;11.566;2023-03-14T04:12:51;0.70;;;0.20;;
64110;SDS011;50401;48.188;11.566;2023-03-14T04:15:17;5.57;;;0.30;;
64110;SDS011;50401;48.188;11.566;2023-03-14T04:17:43;0.90;;;0.40;;
64110;SDS011;50401;48.188;11.566;2023-03-14T04:20:08;0.40;;;0.40;;
64110;SDS011;50401;48.188;11.566;2023-03-14T04:22:37;1.73;;;0.50;;
64110;SDS011;50401;48.188;11.566;2023-03-14T04:25:04;1.13;;;0.35;;
64110;SDS011;50401;48.188;11.566;2023-03-14T04:27:30;0.52;;;0.30;;
64110;SDS011;50401;48.188;11.566;2023-03-14T04:29:55;0.43;;;0.30;;
64110;SDS011;50401;48.188;11.566;2023-03-14T04:32:20;1.75;;;0.28;;
64110;SDS011;50401;48.188;11.566;2023-03-14T04:34:46;1.48;;;0.38;;
64110;SDS011;50401;48.188;11.566;2023-03-14T04:37:11;0.55;;;0.40;;
64110;SDS011;50401;48.188;11.566;2023-03-14T04:39:37;1.63;;;0.40;;
64110;SDS011;50401;48.188;11.566;2023-03-14T04:42:02;2.97;;;0.50;;
64110;SDS011;50401;48.188;11.566;2023-03-14T04:44:28;0.95;;;0.43;;
64110;SDS011;50401;48.188;11.566;2023-03-14T04:46:53;3.20;;;0.43;;
64110;SDS011;50401;48.188;11.566;2023-03-14T04:49:18;2.70;;;0.40;;
64110;SDS011;50401;48.188;11.566;2023-03-14T04:51:44;0.40;;;0.30;;
64110;SDS011;50401;48.188;11.566;2023-03-14T04:54:10;1.45;;;0.30;;
64110;SDS011;50401;48.188;11.566;2023-03-14T04:56:35;0.38;;;0.30;;
64110;SDS011;50401;48.188;11.566;2023-03-14T04:59:02;2.33;;;0.38;;
64110;SDS011;50401;48.188;11.566;2023-03-14T05:01:27;2.42;;;0.40;;
64110;SDS011;50401;48.188;11.566;2023-03-14T05:03:53;0.30;;;0.30;;
64110;SDS011;50401;48.188;11.566;2023-03-14T05:06:18;0.55;;;0.25;;
64110;SDS011;50401;48.188;11.566;2023-03-14T05:08:43;0.30;;;0.30;;
64110;SDS011;50401;48.188;11.566;2023-03-14T05:11:10;1.08;;;0.40;;
64110;SDS011;50401;48.188;11.566;2023-03-14T05:13:36;2.95;;;0.52;;
64110;SDS011;50401;48.188;11.566;2023-03-14T05:16:05;0.88;;;0.45;;
64110;SDS011;50401;48.188;11.566;2023-03-14T05:18:32;1.33;;;0.40;;
64110;SDS011;50401;48.188;11.566;2023-03-14T05:20:58;4.63;;;0.55;;
64110;SDS011;50401;48.188;11.566;2023-03-14T05:23:24;1.40;;;0.40;;
64110;SDS011;50401;48.188;11.566;2023-03-14T05:25:49;1.85;;;1.00;;
64110;SDS011;50401;48.188;11.566;2023-03-14T05:28:14;0.68;;;0.40;;
64110;SDS011;50401;48.188;11.566;2023-03-14T05:30:40;1.73;;;0.52;;
64110;SDS011;50401;48.188;11.566;2023-03-14T05:33:05;0.22;;;0.22;;
64110;SDS011;50401;48.188;11.566;2023-03-14T05:35:30;0.85;;;0.40;;
64110;SDS011;50401;48.188;11.566;2023-03-14T05:37:56;2.08;;;0.32;;
64110;SDS011;50401;48.188;11.566;2023-03-14T05:40:21;1.33;;;0.60;;
64110;SDS011;50401;48.188;11.566;2023-03-14T05:42:47;1.17;;;0.47;;
64110;SDS011;50401;48.188;11.566;2023-03-14T05:45:12;1.52;;;0.60;;
64110;SDS011;50401;48.188;11.566;2023-03-14T05:47:37;0.60;;;0.30;;
64110;SDS011;50401;48.188;11.566;2023-03-14T05:50:03;3.88;;;0.77;;
64110;SDS011;50401;48.188;11.566;2023-03-14T05:52:28;0.50;;;0.50;;
64110;SDS011;50401;48.188;11.566;2023-03-14T05:54:54;5.03;;;0.45;;
64110;SDS011;50401;48.188;11.566;2023-03-14T05:57:19;4.75;;;0.77;;
64110;SDS011;50401;48.188;11.566;2023-03-14T05:59:44;1.13;;;0.30;;
64110;SDS011;50401;48.188;11.566;2023-03-14T06:02:10;2.60;;;0.60;;
64110;SDS011;50401;48.188;11.566;2023-03-14T06:04:35;0.90;;;0.43;;
64110;SDS011;50401;48.188;11.566;2023-03-14T06:07:01;2.08;;;0.57;;
64110;SDS011;50401;48.188;11.566;2023-03-14T06:09:26;2.40;;;0.60;;
64110;SDS011;50401;48.188;11.566;2023-03-14T06:11:51;1.17;;;0.60;;
64110;SDS011;50401;48.188;11.566;2023-03-14T06:14:17;1.85;;;0.82;;
64110;SDS011;50401;48.188;11.566;2023-03-14T06:16:42;1.65;;;0.50;;
64110;SDS011;50401;48.188;11.566;2023-03-14T06:19:08;2.88;;;0.82;;
64110;SDS011;50401;48.188;11.566;2023-03-14T06:21:33;1.50;;;0.80;;
64110;SDS011;50401;48.188;11.566;2023-03-14T06:23:58;2.30;;;1.20;;
64110;SDS011;50401;48.188;11.566;2023-03-14T06:26:24;1.80;;;0.95;;
64110;SDS011;50401;48.188;11.566;2023-03-14T06:28:49;4.00;;;1.05;;
64110;SDS011;50401;48.188;11.566;2023-03-14T06:31:15;1.75;;;0.95;;
64110;SDS011;50401;48.188;11.566;2023-03-14T06:33:41;2.22;;;1.10;;
64110;SDS011;50401;48.188;11.566;2023-03-14T06:36:07;3.20;;;1.35;;
64110;SDS011;50401;48.188;11.566;2023-03-14T06:38:32;1.48;;;0.93;;
64110;SDS011;50401;48.188;11.566;2023-03-14T06:41:07;1.80;;;0.77;;
64110;SDS011;50401;48.188;11.566;2023-03-14T06:43:33;3.13;;;1.35;;
64110;SDS011;50401;48.188;11.566;2023-03-14T06:45:58;2.15;;;0.90;;
64110;SDS011;50401;48.188;11.566;2023-03-14T06:48:24;2.08;;;0.90;;
64110;SDS011;50401;48.188;11.566;2023-03-14T06:50:49;8.20;;;1.45;;
64110;SDS011;50401;48.188;11.566;2023-03-14T06:53:15;2.40;;;1.08;;
64110;SDS011;50401;48.188;11.566;2023-03-14T06:55:40;5.47;;;1.23;;
64110;SDS011;50401;48.188;11.566;2023-03-14T06:58:05;3.97;;;1.60;;
64110;SDS011;50401;48.188;11.566;2023-03-14T07:00:33;4.80;;;1.30;;
64110;SDS011;50401;48.188;11.566;2023-03-14T07:02:58;3.10;;;1.20;;
64110;SDS011;50401;48.188;11.566;2023-03-14T07:05:24;4.07;;;1.17;;
64110;SDS011;50401;48.188;11.566;2023-03-14T07:07:49;2.03;;;0.85;;
64110;SDS011;50401;48.188;11.566;2023-03-14T07:10:15;3.70;;;1.15;;
64110;SDS011;50401;48.188;11.566;2023-03-14T07:12:40;3.88;;;0.90;;
64110;SDS011;50401;48.188;11.566;2023-03-14T07:15:06;2.17;;;0.90;;
64110;SDS011;50401;48.188;11.566;2023-03-14T07:17:31;8.45;;;0.80;;
64110;SDS011;50401;48.188;11.566;2023-03-14T07:19:57;16.40;;;2.00;;
64110;SDS011;50401;48.188;11.566;2023-03-14T07:22:22;8.73;;;1.42;;
64110;SDS011;50401;48.188;11.566;2023-03-14T07:24:48;2.80;;;1.30;;
64110;SDS011;50401;48.188;11.566;2023-03-14T07:27:13;7.65;;;1.17;;
64110;SDS011;50401;48.188;11.566;2023-03-14T07:29:38;5.05;;;0.82;;
64110;SDS011;50401;48.188;11.566;2023-03-14T07:32:04;7.50;;;1.02;;
64110;SDS011;50401;48.188;11.566;2023-03-14T07:34:29;2.17;;;0.63;;
64110;SDS011;50401;48.188;11.566;2023-03-14T07:36:54;8.75;;;1.92;;
64110;SDS011;50401;48.188;11.566;2023-03-14T07:39:20;5.57;;;0.90;;
64110;SDS011;50401;48.188;11.566;2023-03-14T07:41:45;22.15;;;1.08;;
64110;SDS011;50401;48.188;11.566;2023-03-14T07:44:10;17.98;;;1.30;;
64110;SDS011;50401;48.188;11.566;2023-03-14T07:46:36;12.55;;;1.00;;
64110;SDS011;50401;48.188;11.566;2023-03-14T07:49:01;4.40;;;1.05;;
64110;SDS011;50401;48.188;11.566;2023-03-14T07:51:27;12.10;;;1.10;;
64110;SDS011;50401;48.188;11.566;2023-03-14T07:53:52;19.02;;;1.40;;
64110;SDS011;50401;48.188;11.566;2023-03-14T07:56:17;8.95;;;0.65;;
64110;SDS011;50401;48.188;11.566;2023-03-14T07:58:43;5.55;;;1.00;;
64110;SDS011;50401;48.188;11.566;2023-03-14T08:01:08;8.25;;;0.98;;
64110;SDS011;50401;48.188;11.566;2023-03-14T08:03:34;18.05;;;1.42;;
64110;SDS011;50401;48.188;11.566;2023-03-14T08:05:59;11.57;;;1.17;;
64110;SDS011;50401;48.188;11.566;2023-03-14T08:08:24;27.30;;;1.35;;
64110;SDS011;50401;48.188;11.566;2023-03-14T08:10:50;34.00;;;2.25;;
64110;SDS011;50401;48.188;11.566;2023-03-14T08:13:15;24.23;;;1.80;;
64110;SDS011;50401;48.188;11.566;2023-03-14T08:15:40;12.13;;;1.60;;
64110;SDS011;50401;48.188;11.566;2023-03-14T08:18:06;16.70;;;1.50;;
64110;SDS011;50401;48.188;11.566;2023-03-14T08:20:31;11.38;;;0.90;;
64110;SDS011;50401;48.188;11.566;2023-03-14T08:22:57;18.38;;;1.67;;
64110;SDS011;50401;48.188;11.566;2023-03-14T08:25:25;14.52;;;2.47;;
64110;SDS011;50401;48.188;11.566;2023-03-14T08:27:51;22.08;;;1.88;;
64110;SDS011;50401;48.188;11.566;2023-03-14T08:30:17;24.48;;;2.05;;
64110;SDS011;50401;48.188;11.566;2023-03-14T08:32:43;12.30;;;1.40;;
64110;SDS011;50401;48.188;11.566;2023-03-14T08:35:09;42.10;;;2.38;;
64110;SDS011;50401;48.188;11.566;2023-03-14T08:37:35;15.82;;;1.30;;
64110;SDS011;50401;48.188;11.566;2023-03-14T08:40:01;16.83;;;1.30;;
64110;SDS011;50401;48.188;11.566;2023-03-14T08:42:31;22.67;;;2.83;;
64110;SDS011;50401;48.188;11.566;2023-03-14T08:44:57;23.15;;;2.15;;
64110;SDS011;50401;48.188;11.566;2023-03-14T08:47:23;24.83;;;2.38;;
64110;SDS011;50401;48.188;11.566;2023-03-14T08:49:48;37.15;;;4.30;;
64110;SDS011;50401;48.188;11.566;2023-03-14T08:52:13;19.17;;;1.10;;
64110;SDS011;50401;48.188;11.566;2023-03-14T08:54:41;7.88;;;0.98;;
64110;SDS011;50401;48.188;11.566;2023-03-14T08:57:08;15.20;;;1.45;;
64110;SDS011;50401;48.188;11.566;2023-03-14T08:59:33;10.85;;;1.83;;
64110;SDS011;50401;48.188;11.566;2023-03-14T09:01:58;53.60;;;4.15;;
64110;SDS011;50401;48.188;11.566;2023-03-14T09:04:24;8.35;;;1.10;;
64110;SDS011;50401;48.188;11.566;2023-03-14T09:06:49;3.15;;;0.50;;
64110;SDS011;50401;48.188;11.566;2023-03-14T09:09:14;5.68;;;0.65;;
64110;SDS011;50401;48.188;11.566;2023-03-14T09:11:40;9.77;;;0.98;;
64110;SDS011;50401;48.188;11.566;2023-03-14T09:14:05;4.13;;;0.73;;
64110;SDS011;50401;48.188;11.566;2023-03-14T09:16:32;3.47;;;0.88;;
64110;SDS011;50401;48.188;11.566;2023-03-14T09:18:58;11.63;;;1.52;;
64110;SDS011;50401;48.188;11.566;2023-03-14T09:21:25;18.38;;;1.10;;
64110;SDS011;50401;48.188;11.566;2023-03-14T09:23:50;19.08;;;1.35;;
64110;SDS011;50401;48.188;11.566;2023-03-14T09:26:16;17.90;;;1.73;;
64110;SDS011;50401;48.188;11.566;2023-03-14T09:28:41;35.33;;;2.25;;
64110;SDS011;50401;48.188;11.566;2023-03-14T09:31:07;17.80;;;2.17;;
64110;SDS011;50401;48.188;11.566;2023-03-14T09:33:34;16.73;;;1.98;;
64110;SDS011;50401;48.188;11.566;2023-03-14T09:36:00;6.45;;;1.05;;
64110;SDS011;50401;48.188;11.566;2023-03-14T09:38:26;4.65;;;0.80;;
64110;SDS011;50401;48.188;11.566;2023-03-14T09:40:52;11.48;;;1.50;;
64110;SDS011;50401;48.188;11.566;2023-03-14T09:43:19;24.65;;;2.10;;
64110;SDS011;50401;48.188;11.566;2023-03-14T09:45:47;8.37;;;0.97;;
64110;SDS011;50401;48.188;11.566;2023-03-14T09:48:26;19.70;;;1.83;;
64110;SDS011;50401;48.188;11.566;2023-03-14T09:50:55;30.25;;;2.28;;
64110;SDS011;50401;48.188;11.566;2023-03-14T09:53:26;11.20;;;1.40;;
64110;SDS011;50401;48.188;11.566;2023-03-14T09:55:54;6.18;;;0.80;;
64110;SDS011;50401;48.188;11.566;2023-03-14T09:58:23;7.80;;;0.93;;
64110;SDS011;50401;48.188;11.566;2023-03-14T10:00:50;9.68;;;1.13;;
64110;SDS011;50401;48.188;11.566;2023-03-14T10:05:47;7.07;;;0.98;;
64110;SDS011;50401;48.188;11.566;2023-03-14T10:08:13;15.80;;;1.52;;
64110;SDS011;50401;48.188;11.566;2023-03-14T10:10:39;29.80;;;2.47;;
64110;SDS011;50401;48.188;11.566;2023-03-14T10:13:14;14.45;;;2.00;;
64110;SDS011;50401;48.188;11.566;2023-03-14T10:18:16;25.63;;;2.63;;
64110;SDS011;50401;48.188;11.566;2023-03-14T10:20:42;15.07;;;1.52;;
64110;SDS011;50401;48.188;11.566;2023-03-14T10:25:39;13.02;;;1.70;;
64110;SDS011;50401;48.188;11.566;2023-03-14T10:28:11;15.90;;;1.70;;
64110;SDS011;50401;48.188;11.566;2023-03-14T10:30:49;6.75;;;0.98;;
64110;SDS011;50401;48.188;11.566;2023-03-14T10:35:43;10.63;;;1.02;;
64110;SDS011;50401;48.188;11.566;2023-03-14T10:38:40;3.05;;;0.43;;
64110;SDS011;50401;48.188;11.566;2023-03-14T10:41:16;14.52;;;1.30;;
64110;SDS011;50401;48.188;11.566;2023-03-14T10:43:50;9.05;;;1.52;;
64110;SDS011;50401;48.188;11.566;2023-03-14T10:46:18;6.03;;;0.80;;
64110;SDS011;50401;48.188;11.566;2023-03-14T10:48:45;6.88;;;1.05;;
64110;SDS011;50401;48.188;11.566;2023-03-14T10:56:19;3.42;;;0.50;;
64110;SDS011;50401;48.188;11.566;2023-03-14T10:58:47;4.50;;;0.55;;
64110;SDS011;50401;48.188;11.566;2023-03-14T11:03:54;9.85;;;1.10;;
64110;SDS011;50401;48.188;11.566;2023-03-14T11:09:25;2.28;;;0.50;;
64110;SDS011;50401;48.188;11.566;2023-03-14T11:12:02;3.40;;;0.70;;
64110;SDS011;50401;48.188;11.566;2023-03-14T11:14:46;13.45;;;1.40;;
64110;SDS011;50401;48.188;11.566;2023-03-14T11:17:21;4.15;;;0.70;;
64110;SDS011;50401;48.188;11.566;2023-03-14T11:22:47;0.68;;;0.32;;
64110;SDS011;50401;48.188;11.566;2023-03-14T11:31:14;23.83;;;2.08;;
64110;SDS011;50401;48.188;11.566;2023-03-14T11:36:40;10.48;;;1.23;;
64110;SDS011;50401;48.188;11.566;2023-03-14T11:39:13;5.07;;;0.80;;
64110;SDS011;50401;48.188;11.566;2023-03-14T11:41:41;12.88;;;1.23;;
64110;SDS011;50401;48.188;11.566;2023-03-14T11:47:11;1.30;;;0.40;;
64110;SDS011;50401;48.188;11.566;2023-03-14T11:49:43;2.67;;;0.73;;
64110;SDS011;50401;48.188;11.566;2023-03-14T11:52:16;2.47;;;0.73;;
64110;SDS011;50401;48.188;11.566;2023-03-14T11:57:20;4.85;;;0.60;;
64110;SDS011;50401;48.188;11.566;2023-03-14T12:05:25;9.82;;;0.82;;
64110;SDS011;50401;48.188;11.566;2023-03-14T12:10:38;3.75;;;0.52;;
64110;SDS011;50401;48.188;11.566;2023-03-14T12:13:08;4.85;;;0.85;;
64110;SDS011;50401;48.188;11.566;2023-03-14T12:15:36;16.65;;;1.52;;
64110;SDS011;50401;48.188;11.566;2023-03-14T12:18:11;3.88;;;0.88;;
64110;SDS011;50401;48.188;11.566;2023-03-14T12:20:51;0.50;;;0.30;;
64110;SDS011;50401;48.188;11.566;2023-03-14T12:23:19;8.60;;;0.60;;
64110;SDS011;50401;48.188;11.566;2023-03-14T12:25:45;2.70;;;0.40;;
64110;SDS011;50401;48.188;11.566;2023-03-14T12:28:20;4.13;;;0.50;;
64110;SDS011;50401;48.188;11.566;2023-03-14T12:30:55;3.60;;;0.70;;
64110;SDS011;50401;48.188;11.566;2023-03-14T12:33:26;9.48;;;1.88;;
64110;SDS011;50401;48.188;11.566;2023-03-14T12:36:03;1.75;;;0.82;;
64110;SDS011;50401;48.188;11.566;2023-03-14T12:43:45;8.18;;;0.50;;
64110;SDS011;50401;48.188;11.566;2023-03-14T12:48:47;2.40;;;0.68;;
64110;SDS011;50401;48.188;11.566;2023-03-14T13:07:11;0.95;;;0.30;;
64110;SDS011;50401;48.188;11.566;2023-03-14T13:09:51;2.25;;;0.40;;
64110;SDS011;50401;48.188;11.566;2023-03-14T13:12:23;4.00;;;0.40;;
64110;SDS011;50401;48.188;11.566;2023-03-14T13:14:52;8.32;;;0.50;;
64110;SDS011;50401;48.188;11.566;2023-03-14T13:17:26;1.75;;;0.57;;
64110;SDS011;50401;48.188;11.566;2023-03-14T13:19:55;3.47;;;0.40;;
64110;SDS011;50401;48.188;11.566;2023-03-14T13:22:24;10.27;;;0.98;;
64110;SDS011;50401;48.188;11.566;2023-03-14T13:25:03;5.47;;;0.50;;
64110;SDS011;50401;48.188;11.566;2023-03-14T13:27:35;4.13;;;0.47;;
64110;SDS011;50401;48.188;11.566;2023-03-14T13:32:52;1.15;;;0.30;;
64110;SDS011;50401;48.188;11.566;2023-03-14T13:35:21;7.90;;;0.55;;
64110;SDS011;50401;48.188;11.566;2023-03-14T13:37:56;4.38;;;0.30;;
64110;SDS011;50401;48.188;11.566;2023-03-14T13:40:24;5.68;;;0.30;;
64110;SDS011;50401;48.188;11.566;2023-03-14T13:43:14;0.52;;;0.20;;
64110;SDS011;50401;48.188;11.566;2023-03-14T13:45:55;1.52;;;0.43;;
64110;SDS011;50401;48.188;11.566;2023-03-14T13:48:29;0.70;;;0.30;;
64110;SDS011;50401;48.188;11.566;2023-03-14T13:51:06;0.77;;;0.38;;
64110;SDS011;50401;48.188;11.566;2023-03-14T13:53:43;0.88;;;0.30;;
64110;SDS011;50401;48.188;11.566;2023-03-14T13:56:09;4.22;;;0.50;;
64110;SDS011;50401;48.188;11.566;2023-03-14T13:58:35;4.03;;;0.40;;
64110;SDS011;50401;48.188;11.566;2023-03-14T14:01:12;0.25;;;0.20;;
64110;SDS011;50401;48.188;11.566;2023-03-14T14:03:39;0.93;;;0.40;;
64110;SDS011;50401;48.188;11.566;2023-03-14T14:06:08;1.15;;;0.30;;
64110;SDS011;50401;48.188;11.566;2023-03-14T14:08:46;5.68;;;0.30;;
64110;SDS011;50401;48.188;11.566;2023-03-14T14:11:16;1.27;;;0.22;;
64110;SDS011;50401;48.188;11.566;2023-03-14T14:13:46;0.30;;;0.30;;
64110;SDS011;50401;48.188;11.566;2023-03-14T14:16:12;0.52;;;0.30;;
64110;SDS011;50401;48.188;11.566;2023-03-14T14:18:38;0.77;;;0.25;;
64110;SDS011;50401;48.188;11.566;2023-03-14T14:21:04;2.88;;;0.30;;
64110;SDS011;50401;48.188;11.566;2023-03-14T14:23:30;0.68;;;0.50;;
64110;SDS011;50401;48.188;11.566;2023-03-14T14:25:57;0.60;;;0.20;;
64110;SDS011;50401;48.188;11.566;2023-03-14T14:28:30;1.63;;;0.30;;
64110;SDS011;50401;48.188;11.566;2023-03-14T14:34:17;0.65;;;0.38;;
64110;SDS011;50401;48.188;11.566;2023-03-14T14:36:39;8.45;;;0.60;;
64110;SDS011;50401;48.188;11.566;2023-03-14T14:39:17;0.95;;;0.73;;
64110;SDS011;50401;48.188;11.566;2023-03-14T14:41:49;0.95;;;0.57;;
64110;SDS011;50401;48.188;11.566;2023-03-14T14:44:37;6.13;;;0.63;;
64110;SDS011;50401;48.188;11.566;2023-03-14T14:47:02;6.07;;;0.40;;
64110;SDS011;50401;48.188;11.566;2023-03-14T14:49:30;1.48;;;0.20;;
64110;SDS011;50401;48.188;11.566;2023-03-14T14:52:00;2.22;;;0.40;;
64110;SDS011;50401;48.188;11.566;2023-03-14T14:55:12;4.22;;;0.57;;
64110;SDS011;50401;48.188;11.566;2023-03-14T14:57:23;0.65;;;0.38;;
64110;SDS011;50401;48.188;11.566;2023-03-14T14:59:56;0.45;;;0.40;;
64110;SDS011;50401;48.188;11.566;2023-03-14T15:05:02;0.38;;;0.38;;
64110;SDS011;50401;48.188;11.566;2023-03-14T15:07:28;0.38;;;0.38;;
64110;SDS011;50401;48.188;11.566;2023-03-14T15:09:53;4.57;;;0.40;;
64110;SDS011;50401;48.188;11.566;2023-03-14T15:12:19;1.42;;;0.43;;
64110;SDS011;50401;48.188;11.566;2023-03-14T15:14:45;0.70;;;0.30;;
64110;SDS011;50401;48.188;11.566;2023-03-14T15:17:10;0.65;;;0.40;;
64110;SDS011;50401;48.188;11.566;2023-03-14T15:19:36;0.45;;;0.30;;
64110;SDS011;50401;48.188;11.566;2023-03-14T15:22:04;0.60;;;0.30;;
64110;SDS011;50401;48.188;11.566;2023-03-14T15:24:33;3.42;;;0.50;;
64110;SDS011;50401;48.188;11.566;2023-03-14T15:27:03;2.22;;;0.40;;
64110;SDS011;50401;48.188;11.566;2023-03-14T15:29:34;3.85;;;0.52;;
64110;SDS011;50401;48.188;11.566;2023-03-14T15:32:00;9.10;;;1.08;;
64110;SDS011;50401;48.188;11.566;2023-03-14T15:34:25;2.60;;;0.50;;
64110;SDS011;50401;48.188;11.566;2023-03-14T15:36:52;0.40;;;0.40;;
64110;SDS011;50401;48.188;11.566;2023-03-14T15:39:17;2.25;;;1.08;;
64110;SDS011;50401;48.188;11.566;2023-03-14T15:41:43;6.07;;;0.90;;
64110;SDS011;50401;48.188;11.566;2023-03-14T15:44:08;2.83;;;1.00;;
64110;SDS011;50401;48.188;11.566;2023-03-14T15:46:34;2.05;;;0.90;;
64110;SDS011;50401;48.188;11.566;2023-03-14T15:48:59;2.97;;;0.95;;
64110;SDS011;50401;48.188;11.566;2023-03-14T15:51:24;1.50;;;1.25;;
64110;SDS011;50401;48.188;11.566;2023-03-14T15:53:50;2.30;;;1.08;;
64110;SDS011;50401;48.188;11.566;2023-03-14T15:56:17;1.58;;;0.60;;
64110;SDS011;50401;48.188;11.566;2023-03-14T15:58:43;1.40;;;0.70;;
64110;SDS011;50401;48.188;11.566;2023-03-14T16:01:11;2.58;;;0.73;;
64110;SDS011;50401;48.188;11.566;2023-03-14T16:03:37;1.52;;;0.90;;
64110;SDS011;50401;48.188;11.566;2023-03-14T16:06:03;1.60;;;0.80;;
64110;SDS011;50401;48.188;11.566;2023-03-14T16:08:29;2.08;;;0.90;;
64110;SDS011;50401;48.188;11.566;2023-03-14T16:10:55;4.10;;;1.10;;
64110;SDS011;50401;48.188;11.566;2023-03-14T16:13:22;4.32;;;0.95;;
64110;SDS011;50401;48.188;11.566;2023-03-14T16:15:57;2.45;;;0.93;;